Thunder radar more information blitzortung!


Radar de pluja more information rain snow radar


Visita la nostra xarxa de llocs de meteo:

Template documentation
and downloads

And another site



No particular awareness of the weather is required.    There are no Weather-warnings

Pagina Historial Weather Underground text

Diari Resum Novembre 2, 2017 Unitats:  Tant    Imperial   Mètric
« Previous Dia
SegĂźent Dia »
Diari Setmana Mensual Anual Personalitzada
  Maxima: Minima: Media:
Temperatura: 70.3 °F /  21.3 °C 52.3 °F /  11.3 °C 62.2 °F /  16.8 °C
Punt de rosada: 60.1 °F /  15.6 °C 49.5 °F /  9.7 °C 55 °F /  12.8 °C
Humitat: 91 % 65 % 78 %
Wind Speed: 15 mph /  24.1 km/h - 3.4 mph /  5.5 km/h
RĂ fegues de vent: 15 mph /  24.1 km/h - -
Vent:- - SSW
Pression baro: 30.2 in /  1022.9 hPa 30 in /  1016.8 hPa -
Precipitacions: 0 in /  0.0 mm    
Historical Graphs
 
 
Dades de taula per Novembre 2, 2017
Temps Temperatura Punt de rosada Pression baro Vent Wind Speed RĂ fegues de vent Humitat Rainfall Rate (Hourly)
00:03 56.3 °F /  13.5 °C 51.4 °F /  10.8 °C 30.2 in /  1021.9 hPa WSW 1.4 mph /  2.3 km/h 1.4 mph /  2.3 km/h 84 % 0 in /  0.0 mm
00:05 54 °F /  12.2 °C 51.1 °F /  10.6 °C 30.2 in /  1020.9 hPa WNW 2 mph /  3.2 km/h 2 mph /  3.2 km/h 90 % 0 in /  0.0 mm
00:08 56.3 °F /  13.5 °C 51.4 °F /  10.8 °C 30.2 in /  1022.9 hPa Calm     84 % 0 in /  0.0 mm
00:15 53.4 °F /  11.9 °C 50.5 °F /  10.3 °C 30.2 in /  1020.9 hPa Calm   2 mph /  3.2 km/h 90 % 0 in /  0.0 mm
00:25 53.1 °F /  11.7 °C 49.8 °F /  9.9 °C 30.2 in /  1020.9 hPa SE 1 mph /  1.6 km/h 2 mph /  3.2 km/h 89 % 0 in /  0.0 mm
00:35 52.7 °F /  11.5 °C 49.5 °F /  9.7 °C 30.2 in /  1020.9 hPa Calm   1 mph /  1.6 km/h 89 % 0 in /  0.0 mm
00:45 52.7 °F /  11.5 °C 49.5 °F /  9.7 °C 30.2 in /  1020.9 hPa Calm     89 % 0 in /  0.0 mm
00:55 52.5 °F /  11.4 °C 49.5 °F /  9.7 °C 30.2 in /  1020.9 hPa Calm     89 % 0 in /  0.0 mm
01:05 52.5 °F /  11.4 °C 49.5 °F /  9.7 °C 30.2 in /  1020.9 hPa Calm     89 % 0 in /  0.0 mm
01:15 52.3 °F /  11.3 °C 49.5 °F /  9.7 °C 30.2 in /  1020.9 hPa Calm     90 % 0 in /  0.0 mm
01:25 52.5 °F /  11.4 °C 49.6 °F /  9.8 °C 30.2 in /  1021.9 hPa Calm     90 % 0 in /  0.0 mm
01:35 52.5 °F /  11.4 °C 49.6 °F /  9.8 °C 30.2 in /  1021.9 hPa Calm     90 % 0 in /  0.0 mm
01:45 52.7 °F /  11.5 °C 49.8 °F /  9.9 °C 30.2 in /  1020.9 hPa Calm     90 % 0 in /  0.0 mm
01:55 53.1 °F /  11.7 °C 50.5 °F /  10.3 °C 30.2 in /  1020.9 hPa Calm   1 mph /  1.6 km/h 91 % 0 in /  0.0 mm
02:05 53.2 °F /  11.8 °C 50.7 °F /  10.4 °C 30.2 in /  1020.9 hPa North 1 mph /  1.6 km/h 2 mph /  3.2 km/h 91 % 0 in /  0.0 mm
02:15 53.4 °F /  11.9 °C 50.9 °F /  10.5 °C 30.2 in /  1021.9 hPa NNE 1 mph /  1.6 km/h 2 mph /  3.2 km/h 91 % 0 in /  0.0 mm
02:25 53.2 °F /  11.8 °C 50.4 °F /  10.2 °C 30.2 in /  1021.9 hPa NE 1 mph /  1.6 km/h 2 mph /  3.2 km/h 90 % 0 in /  0.0 mm
02:35 53.6 °F /  12.0 °C 50.7 °F /  10.4 °C 30.2 in /  1021.9 hPa ENE 1 mph /  1.6 km/h 2 mph /  3.2 km/h 90 % 0 in /  0.0 mm
02:45 53.6 °F /  12.0 °C 50.7 °F /  10.4 °C 30.2 in /  1021.9 hPa Calm   1 mph /  1.6 km/h 90 % 0 in /  0.0 mm
02:55 54.3 °F /  12.4 °C 51.4 °F /  10.8 °C 30.2 in /  1021.9 hPa NE 1 mph /  1.6 km/h 2 mph /  3.2 km/h 90 % 0 in /  0.0 mm
03:05 55.2 °F /  12.9 °C 52 °F /  11.1 °C 30.2 in /  1021.9 hPa ENE 2 mph /  3.2 km/h 2 mph /  3.2 km/h 89 % 0 in /  0.0 mm
03:15 55.4 °F /  13.0 °C 52 °F /  11.1 °C 30.2 in /  1021.9 hPa East 2 mph /  3.2 km/h 2 mph /  3.2 km/h 88 % 0 in /  0.0 mm
03:25 55.4 °F /  13.0 °C 51.6 °F /  10.9 °C 30.2 in /  1021.9 hPa East 1 mph /  1.6 km/h 2 mph /  3.2 km/h 87 % 0 in /  0.0 mm
03:35 56.3 °F /  13.5 °C 52.9 °F /  11.6 °C 30.2 in /  1021.9 hPa East 1 mph /  1.6 km/h 2 mph /  3.2 km/h 88 % 0 in /  0.0 mm
03:45 57 °F /  13.9 °C 52.9 °F /  11.6 °C 30.2 in /  1021.9 hPa Calm   3 mph /  4.8 km/h 86 % 0 in /  0.0 mm
03:55 57.4 °F /  14.1 °C 52.5 °F /  11.4 °C 30.2 in /  1021.9 hPa ESE 3 mph /  4.8 km/h 4 mph /  6.4 km/h 84 % 0 in /  0.0 mm
04:05 57.7 °F /  14.3 °C 52.9 °F /  11.6 °C 30.2 in /  1021.9 hPa ESE 2 mph /  3.2 km/h 3 mph /  4.8 km/h 84 % 0 in /  0.0 mm
04:15 58.3 °F /  14.6 °C 53.4 °F /  11.9 °C 30.2 in /  1021.9 hPa ESE 1 mph /  1.6 km/h 3 mph /  4.8 km/h 84 % 0 in /  0.0 mm
10:24 58.5 °F /  14.7 °C 53.2 °F /  11.8 °C 30.2 in /  1020.9 hPa ESE 3.3 mph /  5.3 km/h 3.3 mph /  5.3 km/h 83 % 0 in /  0.0 mm
10:25 58.6 °F /  14.8 °C 53.4 °F /  11.9 °C 30.2 in /  1020.9 hPa ESE 3.3 mph /  5.3 km/h 3.3 mph /  5.3 km/h 83 % 0 in /  0.0 mm
10:30 59.5 °F /  15.3 °C 54.3 °F /  12.4 °C 30.2 in /  1020.9 hPa East 1 mph /  1.6 km/h 3 mph /  4.8 km/h 83 % 0 in /  0.0 mm
10:35 59.5 °F /  15.3 °C 54 °F /  12.2 °C 30.2 in /  1020.9 hPa East 2 mph /  3.2 km/h 2 mph /  3.2 km/h 82 % 0 in /  0.0 mm
10:40 60.1 °F /  15.6 °C 54.5 °F /  12.5 °C 30.2 in /  1021.9 hPa ESE 1 mph /  1.6 km/h 2 mph /  3.2 km/h 82 % 0 in /  0.0 mm
10:45 60.6 °F /  15.9 °C 54.9 °F /  12.7 °C 30.2 in /  1021.9 hPa SE 1 mph /  1.6 km/h 2 mph /  3.2 km/h 81 % 0 in /  0.0 mm
10:50 60.6 °F /  15.9 °C 54.9 °F /  12.7 °C 30.2 in /  1021.9 hPa ESE 2.3 mph /  3.7 km/h 2.3 mph /  3.7 km/h 81 % 0 in /  0.0 mm
10:55 60.8 °F /  16.0 °C 54.7 °F /  12.6 °C 30.2 in /  1021.9 hPa ENE 2 mph /  3.2 km/h 2 mph /  3.2 km/h 80 % 0 in /  0.0 mm
11:00 60.8 °F /  16.0 °C 54.7 °F /  12.6 °C 30.2 in /  1021.9 hPa NNE 1.4 mph /  2.3 km/h 1.4 mph /  2.3 km/h 80 % 0 in /  0.0 mm
11:05 61 °F /  16.1 °C 54.9 °F /  12.7 °C 30.2 in /  1021.9 hPa NE 2.3 mph /  3.7 km/h 2.3 mph /  3.7 km/h 80 % 0 in /  0.0 mm
11:10 61.3 °F /  16.3 °C 55 °F /  12.8 °C 30.2 in /  1021.9 hPa ENE 2.3 mph /  3.7 km/h 2.3 mph /  3.7 km/h 80 % 0 in /  0.0 mm
11:15 62.1 °F /  16.7 °C 55.8 °F /  13.2 °C 30.2 in /  1021.9 hPa ENE 3.5 mph /  5.6 km/h 3.5 mph /  5.6 km/h 80 % 0 in /  0.0 mm
11:20 62.8 °F /  17.1 °C 55.8 °F /  13.2 °C 30.2 in /  1021.9 hPa NNE 2.9 mph /  4.7 km/h 2.9 mph /  4.7 km/h 78 % 0 in /  0.0 mm
11:25 62.8 °F /  17.1 °C 55.8 °F /  13.2 °C 30.2 in /  1021.9 hPa NNE 2.6 mph /  4.2 km/h 2.6 mph /  4.2 km/h 78 % 0 in /  0.0 mm
11:30 63.1 °F /  17.3 °C 55.8 °F /  13.2 °C 30.2 in /  1021.9 hPa NNE 3.5 mph /  5.6 km/h 3.5 mph /  5.6 km/h 77 % 0 in /  0.0 mm
11:35 62.4 °F /  16.9 °C 55.6 °F /  13.1 °C 30.2 in /  1021.9 hPa NE 3.5 mph /  5.6 km/h 3.5 mph /  5.6 km/h 78 % 0 in /  0.0 mm
11:40 63.1 °F /  17.3 °C 55.8 °F /  13.2 °C 30.2 in /  1021.9 hPa ENE 2.3 mph /  3.7 km/h 2.3 mph /  3.7 km/h 77 % 0 in /  0.0 mm
11:45 64 °F /  17.8 °C 56.7 °F /  13.7 °C 30.2 in /  1021.9 hPa ENE 2.9 mph /  4.7 km/h 2.9 mph /  4.7 km/h 77 % 0 in /  0.0 mm
11:50 64.6 °F /  18.1 °C 57.2 °F /  14.0 °C 30.2 in /  1021.9 hPa NNE 4.6 mph /  7.4 km/h 4.6 mph /  7.4 km/h 77 % 0 in /  0.0 mm
11:55 64.6 °F /  18.1 °C 56.8 °F /  13.8 °C 30.2 in /  1021.9 hPa NNE 3.5 mph /  5.6 km/h 3.5 mph /  5.6 km/h 76 % 0 in /  0.0 mm
12:10 65.5 °F /  18.6 °C 57.4 °F /  14.1 °C 30.2 in /  1020.9 hPa East 2.9 mph /  4.7 km/h   75 % 0 in /  0.0 mm
12:15 66.4 °F /  19.1 °C 57.6 °F /  14.2 °C 30.2 in /  1020.9 hPa South 2.6 mph /  4.2 km/h 2.6 mph /  4.2 km/h 73 % 0 in /  0.0 mm
12:20 66.4 °F /  19.1 °C 57.6 °F /  14.2 °C 30.2 in /  1020.9 hPa West 2.3 mph /  3.7 km/h 2.3 mph /  3.7 km/h 73 % 0 in /  0.0 mm
12:25 66.4 °F /  19.1 °C 57 °F /  13.9 °C 30.1 in /  1019.9 hPa ENE 5.8 mph /  9.3 km/h 5.8 mph /  9.3 km/h 72 % 0 in /  0.0 mm
12:30 66.7 °F /  19.3 °C 57.7 °F /  14.3 °C 30.1 in /  1019.9 hPa ENE 2.3 mph /  3.7 km/h 2.3 mph /  3.7 km/h 73 % 0 in /  0.0 mm
12:35 67.1 °F /  19.5 °C 58.3 °F /  14.6 °C 30.1 in /  1019.9 hPa WSW 2 mph /  3.2 km/h 2 mph /  3.2 km/h 73 % 0 in /  0.0 mm
12:40 68.2 °F /  20.1 °C 59.2 °F /  15.1 °C 30.1 in /  1019.9 hPa SSW 6.4 mph /  10.3 km/h 6.4 mph /  10.3 km/h 73 % 0 in /  0.0 mm
12:45 69.1 °F /  20.6 °C 59.2 °F /  15.1 °C 30.1 in /  1019.9 hPa SSW 2 mph /  3.2 km/h 7 mph /  11.3 km/h 71 % 0 in /  0.0 mm
12:50 69.4 °F /  20.8 °C 60.1 °F /  15.6 °C 30.1 in /  1019.9 hPa SSW 2 mph /  3.2 km/h 6 mph /  9.7 km/h 72 % 0 in /  0.0 mm
12:55 69.6 °F /  20.9 °C 59.7 °F /  15.4 °C 30.1 in /  1019.9 hPa SW 5 mph /  8.0 km/h 10 mph /  16.1 km/h 71 % 0 in /  0.0 mm
13:00 70 °F /  21.1 °C 59.2 °F /  15.1 °C 30.1 in /  1019.9 hPa SW 2 mph /  3.2 km/h 6 mph /  9.7 km/h 69 % 0 in /  0.0 mm
13:05 70 °F /  21.1 °C 58.8 °F /  14.9 °C 30.1 in /  1019.9 hPa SSW 3 mph /  4.8 km/h 6 mph /  9.7 km/h 68 % 0 in /  0.0 mm
13:10 69.8 °F /  21.0 °C 59.2 °F /  15.1 °C 30.1 in /  1019.9 hPa SW 3 mph /  4.8 km/h 7 mph /  11.3 km/h 69 % 0 in /  0.0 mm
13:15 70.3 °F /  21.3 °C 59.2 °F /  15.1 °C 30.1 in /  1019.9 hPa SW 2 mph /  3.2 km/h 5 mph /  8.0 km/h 68 % 0 in /  0.0 mm
13:20 70 °F /  21.1 °C 58.5 °F /  14.7 °C 30.1 in /  1019.9 hPa SSW 6.9 mph /  11.1 km/h 6.9 mph /  11.1 km/h 67 % 0 in /  0.0 mm
13:25 70.2 °F /  21.2 °C 58.6 °F /  14.8 °C 30.1 in /  1019.9 hPa SSW 5 mph /  8.0 km/h 10 mph /  16.1 km/h 67 % 0 in /  0.0 mm
13:30 69.4 °F /  20.8 °C 57.9 °F /  14.4 °C 30.1 in /  1019.9 hPa SSW 6 mph /  9.7 km/h 9 mph /  14.5 km/h 67 % 0 in /  0.0 mm
13:35 69.4 °F /  20.8 °C 57.6 °F /  14.2 °C 30.1 in /  1019.9 hPa SW 6 mph /  9.7 km/h 10 mph /  16.1 km/h 66 % 0 in /  0.0 mm
13:40 70 °F /  21.1 °C 58.1 °F /  14.5 °C 30.1 in /  1018.8 hPa SW 2 mph /  3.2 km/h 10 mph /  16.1 km/h 66 % 0 in /  0.0 mm
13:45 69.6 °F /  20.9 °C 57.7 °F /  14.3 °C 30.1 in /  1018.8 hPa SSW 3 mph /  4.8 km/h 10 mph /  16.1 km/h 66 % 0 in /  0.0 mm
13:50 69.3 °F /  20.7 °C 57 °F /  13.9 °C 30.1 in /  1018.8 hPa SSW 5 mph /  8.0 km/h 10 mph /  16.1 km/h 65 % 0 in /  0.0 mm
13:55 69.1 °F /  20.6 °C 56.8 °F /  13.8 °C 30.1 in /  1018.8 hPa SW 7 mph /  11.3 km/h 11 mph /  17.7 km/h 65 % 0 in /  0.0 mm
14:00 68.9 °F /  20.5 °C 57 °F /  13.9 °C 30.1 in /  1018.8 hPa WSW 10.4 mph /  16.7 km/h 10.4 mph /  16.7 km/h 66 % 0 in /  0.0 mm
14:05 69.1 °F /  20.6 °C 57.2 °F /  14.0 °C 30.1 in /  1018.8 hPa SW 3 mph /  4.8 km/h 6 mph /  9.7 km/h 66 % 0 in /  0.0 mm
14:10 68.7 °F /  20.4 °C 56.8 °F /  13.8 °C 30.1 in /  1018.8 hPa SW 5 mph /  8.0 km/h 10 mph /  16.1 km/h 66 % 0 in /  0.0 mm
14:15 68.5 °F /  20.3 °C 56.7 °F /  13.7 °C 30.1 in /  1018.8 hPa SSW 5 mph /  8.0 km/h 12 mph /  19.3 km/h 66 % 0 in /  0.0 mm
14:20 68.7 °F /  20.4 °C 57.4 °F /  14.1 °C 30.1 in /  1018.8 hPa SW 5 mph /  8.0 km/h 9 mph /  14.5 km/h 67 % 0 in /  0.0 mm
14:25 68.5 °F /  20.3 °C 57 °F /  13.9 °C 30.1 in /  1018.8 hPa SW 3 mph /  4.8 km/h 9 mph /  14.5 km/h 67 % 0 in /  0.0 mm
14:30 68.7 °F /  20.4 °C 57.4 °F /  14.1 °C 30.1 in /  1018.8 hPa SW 6.9 mph /  11.1 km/h 6.9 mph /  11.1 km/h 67 % 0 in /  0.0 mm
14:35 68.7 °F /  20.4 °C 56.8 °F /  13.8 °C 30.1 in /  1018.8 hPa SW 9.2 mph /  14.8 km/h 9.2 mph /  14.8 km/h 66 % 0 in /  0.0 mm
14:40 68.7 °F /  20.4 °C 56.8 °F /  13.8 °C 30.1 in /  1018.8 hPa SSW 9.2 mph /  14.8 km/h 9.2 mph /  14.8 km/h 66 % 0 in /  0.0 mm
14:45 68.5 °F /  20.3 °C 56.7 °F /  13.7 °C 30.1 in /  1018.8 hPa SW 8.1 mph /  13.0 km/h 8.1 mph /  13.0 km/h 66 % 0 in /  0.0 mm
14:50 68.7 °F /  20.4 °C 56.8 °F /  13.8 °C 30.1 in /  1018.8 hPa WSW 6.9 mph /  11.1 km/h 6.9 mph /  11.1 km/h 66 % 0 in /  0.0 mm
14:55 68.7 °F /  20.4 °C 57.4 °F /  14.1 °C 30.1 in /  1018.8 hPa West 5.6 mph /  9.0 km/h 5.6 mph /  9.0 km/h 67 % 0 in /  0.0 mm
15:00 68.5 °F /  20.3 °C 56.7 °F /  13.7 °C 30.1 in /  1018.8 hPa SSW 9.2 mph /  14.8 km/h 9.2 mph /  14.8 km/h 66 % 0 in /  0.0 mm
15:05 68.7 °F /  20.4 °C 56.8 °F /  13.8 °C 30.1 in /  1018.8 hPa SSW 15 mph /  24.1 km/h 15 mph /  24.1 km/h 66 % 0 in /  0.0 mm
15:10 69.1 °F /  20.6 °C 57.2 °F /  14.0 °C 30.1 in /  1017.8 hPa WSW 6 mph /  9.7 km/h 6.2 mph /  10.0 km/h 66 % 0 in /  0.0 mm
15:15 69.3 °F /  20.7 °C 57.4 °F /  14.1 °C 30.1 in /  1017.8 hPa SSW 5.8 mph /  9.3 km/h 5.8 mph /  9.3 km/h 66 % 0 in /  0.0 mm
15:20 69.3 °F /  20.7 °C 57.4 °F /  14.1 °C 30.1 in /  1017.8 hPa SW 5.8 mph /  9.3 km/h 5.8 mph /  9.3 km/h 66 % 0 in /  0.0 mm
15:25 69.3 °F /  20.7 °C 57.4 °F /  14.1 °C 30.1 in /  1017.8 hPa South 8.1 mph /  13.0 km/h 8.1 mph /  13.0 km/h 66 % 0 in /  0.0 mm
15:30 68.7 °F /  20.4 °C 56.5 °F /  13.6 °C 30.1 in /  1017.8 hPa WSW 12.7 mph /  20.4 km/h 12.7 mph /  20.4 km/h 65 % 0 in /  0.0 mm
15:35 68.7 °F /  20.4 °C 56.8 °F /  13.8 °C 30.1 in /  1017.8 hPa SSW 8.1 mph /  13.0 km/h 8.1 mph /  13.0 km/h 66 % 0 in /  0.0 mm
15:40 68.7 °F /  20.4 °C 56.8 °F /  13.8 °C 30.1 in /  1017.8 hPa SSE 11.5 mph /  18.5 km/h 11.5 mph /  18.5 km/h 66 % 0 in /  0.0 mm
15:45 68.5 °F /  20.3 °C 56.7 °F /  13.7 °C 30.1 in /  1017.8 hPa SW 5.8 mph /  9.3 km/h 5.8 mph /  9.3 km/h 66 % 0 in /  0.0 mm
15:50 68.5 °F /  20.3 °C 56.7 °F /  13.7 °C 30.1 in /  1017.8 hPa WSW 8.1 mph /  13.0 km/h 8.1 mph /  13.0 km/h 66 % 0 in /  0.0 mm
15:55 68.4 °F /  20.2 °C 56.7 °F /  13.7 °C 30.1 in /  1017.8 hPa South 9.2 mph /  14.8 km/h 9.2 mph /  14.8 km/h 66 % 0 in /  0.0 mm
16:00 68.2 °F /  20.1 °C 56.5 °F /  13.6 °C 30.1 in /  1017.8 hPa West 9.2 mph /  14.8 km/h 9.2 mph /  14.8 km/h 66 % 0 in /  0.0 mm
16:05 68 °F /  20.0 °C 56.7 °F /  13.7 °C 30.1 in /  1017.8 hPa WSW 9.2 mph /  14.8 km/h 9.2 mph /  14.8 km/h 67 % 0 in /  0.0 mm
16:10 68 °F /  20.0 °C 56.7 °F /  13.7 °C 30.1 in /  1017.8 hPa SSW 4.6 mph /  7.4 km/h 4.6 mph /  7.4 km/h 67 % 0 in /  0.0 mm
16:15 68.2 °F /  20.1 °C 56.8 °F /  13.8 °C 30.1 in /  1017.8 hPa SW 8.1 mph /  13.0 km/h 8.1 mph /  13.0 km/h 67 % 0 in /  0.0 mm
16:20 67.6 °F /  19.8 °C 56.7 °F /  13.7 °C 30.1 in /  1017.8 hPa SW 8.1 mph /  13.0 km/h 8.1 mph /  13.0 km/h 68 % 0 in /  0.0 mm
16:25 67.6 °F /  19.8 °C 57 °F /  13.9 °C 30.1 in /  1017.8 hPa SW 11.5 mph /  18.5 km/h 11.5 mph /  18.5 km/h 69 % 0 in /  0.0 mm
16:30 67.3 °F /  19.6 °C 56.8 °F /  13.8 °C 30.1 in /  1017.8 hPa South 6.9 mph /  11.1 km/h 6.9 mph /  11.1 km/h 69 % 0 in /  0.0 mm
16:35 67.3 °F /  19.6 °C 57.2 °F /  14.0 °C 30.1 in /  1017.8 hPa SW 6.9 mph /  11.1 km/h 6.9 mph /  11.1 km/h 70 % 0 in /  0.0 mm
16:40 67.1 °F /  19.5 °C 57 °F /  13.9 °C 30 in /  1016.8 hPa SSW 5.8 mph /  9.3 km/h 5.8 mph /  9.3 km/h 70 % 0 in /  0.0 mm
16:45 66.7 °F /  19.3 °C 57 °F /  13.9 °C 30 in /  1016.8 hPa West 6.9 mph /  11.1 km/h 6.9 mph /  11.1 km/h 71 % 0 in /  0.0 mm
16:50 66.6 °F /  19.2 °C 56.8 °F /  13.8 °C 30 in /  1016.8 hPa SW 5.8 mph /  9.3 km/h 5.8 mph /  9.3 km/h 71 % 0 in /  0.0 mm
16:55 66.4 °F /  19.1 °C 57 °F /  13.9 °C 30.1 in /  1017.8 hPa SW 6.9 mph /  11.1 km/h 6.9 mph /  11.1 km/h 72 % 0 in /  0.0 mm
17:00 66.2 °F /  19.0 °C 56.8 °F /  13.8 °C 30.1 in /  1017.8 hPa WSW 5.8 mph /  9.3 km/h 5.8 mph /  9.3 km/h 72 % 0 in /  0.0 mm
17:05 65.8 °F /  18.8 °C 56.8 °F /  13.8 °C 30.1 in /  1017.8 hPa SW 4.6 mph /  7.4 km/h 4.6 mph /  7.4 km/h 73 % 0 in /  0.0 mm
17:10 65.7 °F /  18.7 °C 57 °F /  13.9 °C 30.1 in /  1017.8 hPa WSW 7.1 mph /  11.4 km/h 7.1 mph /  11.4 km/h 74 % 0 in /  0.0 mm
17:15 65.5 °F /  18.6 °C 57 °F /  13.9 °C 30.1 in /  1017.8 hPa SW 4.6 mph /  7.4 km/h 4.6 mph /  7.4 km/h 74 % 0 in /  0.0 mm
17:20 65.3 °F /  18.5 °C 57.2 °F /  14.0 °C 30.1 in /  1017.8 hPa WSW 4.6 mph /  7.4 km/h 4.6 mph /  7.4 km/h 75 % 0 in /  0.0 mm
17:25 65.1 °F /  18.4 °C 57 °F /  13.9 °C 30.1 in /  1017.8 hPa SW 4.6 mph /  7.4 km/h 4.6 mph /  7.4 km/h 75 % 0 in /  0.0 mm
17:30 64.9 °F /  18.3 °C 56.8 °F /  13.8 °C 30.1 in /  1017.8 hPa SW 5.9 mph /  9.5 km/h 5.9 mph /  9.5 km/h 75 % 0 in /  0.0 mm
17:35 64.9 °F /  18.3 °C 56.8 °F /  13.8 °C 30.1 in /  1017.8 hPa WSW 4.9 mph /  7.9 km/h 4.9 mph /  7.9 km/h 75 % 0 in /  0.0 mm
17:40 64.8 °F /  18.2 °C 57 °F /  13.9 °C 30.1 in /  1017.8 hPa SSW 4.6 mph /  7.4 km/h 4.6 mph /  7.4 km/h 76 % 0 in /  0.0 mm
17:45 64.6 °F /  18.1 °C 56.8 °F /  13.8 °C 30.1 in /  1017.8 hPa SSW 5.8 mph /  9.3 km/h 5.8 mph /  9.3 km/h 76 % 0 in /  0.0 mm
17:50 64.4 °F /  18.0 °C 56.7 °F /  13.7 °C 30.1 in /  1017.8 hPa SW 5.4 mph /  8.7 km/h 5.4 mph /  8.7 km/h 76 % 0 in /  0.0 mm
17:55 64.2 °F /  17.9 °C 56.8 °F /  13.8 °C 30.1 in /  1017.8 hPa SW 5.8 mph /  9.3 km/h 5.8 mph /  9.3 km/h 77 % 0 in /  0.0 mm
18:00 64 °F /  17.8 °C 56.7 °F /  13.7 °C 30.1 in /  1017.8 hPa South 4.6 mph /  7.4 km/h 4.6 mph /  7.4 km/h 77 % 0 in /  0.0 mm
18:05 63.9 °F /  17.7 °C 56.5 °F /  13.6 °C 30.1 in /  1017.8 hPa SSW 5.8 mph /  9.3 km/h 5.8 mph /  9.3 km/h 77 % 0 in /  0.0 mm
18:10 63.9 °F /  17.7 °C 56.5 °F /  13.6 °C 30.1 in /  1017.8 hPa WSW 4.6 mph /  7.4 km/h 4.6 mph /  7.4 km/h 77 % 0 in /  0.0 mm
18:15 63.7 °F /  17.6 °C 56.7 °F /  13.7 °C 30.1 in /  1017.8 hPa SW 3.5 mph /  5.6 km/h 3.5 mph /  5.6 km/h 78 % 0 in /  0.0 mm
18:20 63.5 °F /  17.5 °C 56.5 °F /  13.6 °C 30.1 in /  1017.8 hPa SW 3.5 mph /  5.6 km/h 3.5 mph /  5.6 km/h 78 % 0 in /  0.0 mm
18:25 63.3 °F /  17.4 °C 56.3 °F /  13.5 °C 30.1 in /  1017.8 hPa SW 3.5 mph /  5.6 km/h 3.5 mph /  5.6 km/h 78 % 0 in /  0.0 mm
18:30 63.3 °F /  17.4 °C 56.3 °F /  13.5 °C 30.1 in /  1017.8 hPa WSW 3.5 mph /  5.6 km/h 3.5 mph /  5.6 km/h 78 % 0 in /  0.0 mm
18:35 63.1 °F /  17.3 °C 56.1 °F /  13.4 °C 30.1 in /  1017.8 hPa SSW 4.6 mph /  7.4 km/h 4.6 mph /  7.4 km/h 78 % 0 in /  0.0 mm
18:40 63.1 °F /  17.3 °C 56.5 °F /  13.6 °C 30.1 in /  1017.8 hPa SW 4.6 mph /  7.4 km/h 4.6 mph /  7.4 km/h 79 % 0 in /  0.0 mm
18:45 63 °F /  17.2 °C 56.3 °F /  13.5 °C 30.1 in /  1017.8 hPa WSW 3.5 mph /  5.6 km/h 3.5 mph /  5.6 km/h 79 % 0 in /  0.0 mm
18:50 62.8 °F /  17.1 °C 56.1 °F /  13.4 °C 30.1 in /  1017.8 hPa WSW 2.3 mph /  3.7 km/h 2.3 mph /  3.7 km/h 79 % 0 in /  0.0 mm
18:55 62.8 °F /  17.1 °C 56.1 °F /  13.4 °C 30.1 in /  1017.8 hPa WNW 2.3 mph /  3.7 km/h 2.3 mph /  3.7 km/h 79 % 0 in /  0.0 mm
19:00 62.6 °F /  17.0 °C 56.3 °F /  13.5 °C 30.1 in /  1017.8 hPa SW 2.3 mph /  3.7 km/h 2.3 mph /  3.7 km/h 80 % 0 in /  0.0 mm
19:05 62.4 °F /  16.9 °C 56.5 °F /  13.6 °C 30.1 in /  1017.8 hPa SSW 2.4 mph /  3.9 km/h 2.4 mph /  3.9 km/h 81 % 0 in /  0.0 mm
19:10 62.2 °F /  16.8 °C 56.3 °F /  13.5 °C 30.1 in /  1017.8 hPa SW 3.3 mph /  5.3 km/h 3.3 mph /  5.3 km/h 81 % 0 in /  0.0 mm
19:15 62.1 °F /  16.7 °C 56.1 °F /  13.4 °C 30.1 in /  1017.8 hPa WSW 3.8 mph /  6.1 km/h 3.8 mph /  6.1 km/h 81 % 0 in /  0.0 mm
19:20 61.9 °F /  16.6 °C 55.9 °F /  13.3 °C 30.1 in /  1017.8 hPa SW 4 mph /  6.4 km/h 4 mph /  6.4 km/h 81 % 0 in /  0.0 mm
19:25 61.9 °F /  16.6 °C 55.9 °F /  13.3 °C 30.1 in /  1018.8 hPa SW 3.5 mph /  5.6 km/h 3.5 mph /  5.6 km/h 81 % 0 in /  0.0 mm
19:30 61.7 °F /  16.5 °C 55.8 °F /  13.2 °C 30.1 in /  1018.8 hPa SSW 3.3 mph /  5.3 km/h 3.3 mph /  5.3 km/h 81 % 0 in /  0.0 mm
19:35 61.7 °F /  16.5 °C 55.8 °F /  13.2 °C 30.1 in /  1018.8 hPa SW 3.3 mph /  5.3 km/h 3.3 mph /  5.3 km/h 81 % 0 in /  0.0 mm
19:40 61.5 °F /  16.4 °C 55.6 °F /  13.1 °C 30.1 in /  1018.8 hPa SW 3.6 mph /  5.8 km/h 3.6 mph /  5.8 km/h 81 % 0 in /  0.0 mm
19:45 61.7 °F /  16.5 °C 55.8 °F /  13.2 °C 30.1 in /  1018.8 hPa SW 3.5 mph /  5.6 km/h 3.5 mph /  5.6 km/h 81 % 0 in /  0.0 mm
19:50 61.5 °F /  16.4 °C 55.6 °F /  13.1 °C 30.1 in /  1018.8 hPa WSW 2.6 mph /  4.2 km/h 2.6 mph /  4.2 km/h 81 % 0 in /  0.0 mm
19:55 61.3 °F /  16.3 °C 55.6 °F /  13.1 °C 30.1 in /  1018.8 hPa SW 2.3 mph /  3.7 km/h 2.3 mph /  3.7 km/h 81 % 0 in /  0.0 mm
20:00 61.3 °F /  16.3 °C 55.6 °F /  13.1 °C 30.1 in /  1018.8 hPa West 2.3 mph /  3.7 km/h 2.3 mph /  3.7 km/h 81 % 0 in /  0.0 mm
20:05 61.2 °F /  16.2 °C 55.2 °F /  12.9 °C 30.1 in /  1018.8 hPa West 1.6 mph /  2.6 km/h 1.6 mph /  2.6 km/h 81 % 0 in /  0.0 mm
20:10 61.2 °F /  16.2 °C 55.6 °F /  13.1 °C 30.1 in /  1017.8 hPa West 2.3 mph /  3.7 km/h 2.3 mph /  3.7 km/h 82 % 0 in /  0.0 mm
20:15 61.2 °F /  16.2 °C 55.2 °F /  12.9 °C 30.1 in /  1017.8 hPa West 2.3 mph /  3.7 km/h 2.3 mph /  3.7 km/h 81 % 0 in /  0.0 mm
20:20 61.2 °F /  16.2 °C 55.6 °F /  13.1 °C 30.1 in /  1017.8 hPa West 1.2 mph /  1.9 km/h 1.2 mph /  1.9 km/h 82 % 0 in /  0.0 mm
20:25 61 °F /  16.1 °C 55.4 °F /  13.0 °C 30.1 in /  1017.8 hPa SW 1.6 mph /  2.6 km/h 1.6 mph /  2.6 km/h 82 % 0 in /  0.0 mm
20:30 60.8 °F /  16.0 °C 55.2 °F /  12.9 °C 30.1 in /  1017.8 hPa West 2.3 mph /  3.7 km/h 2.3 mph /  3.7 km/h 82 % 0 in /  0.0 mm
20:35 60.6 °F /  15.9 °C 55 °F /  12.8 °C 30.1 in /  1017.8 hPa WSW 2.3 mph /  3.7 km/h 2.3 mph /  3.7 km/h 82 % 0 in /  0.0 mm
20:40 60.4 °F /  15.8 °C 54.9 °F /  12.7 °C 30.1 in /  1018.8 hPa WSW 2 mph /  3.2 km/h 2 mph /  3.2 km/h 82 % 0 in /  0.0 mm
20:45 60.3 °F /  15.7 °C 54.7 °F /  12.6 °C 30.1 in /  1018.8 hPa West 2.3 mph /  3.7 km/h 2.3 mph /  3.7 km/h 82 % 0 in /  0.0 mm
20:50 60.3 °F /  15.7 °C 54.7 °F /  12.6 °C 30.1 in /  1018.8 hPa SW 2.3 mph /  3.7 km/h 2.3 mph /  3.7 km/h 82 % 0 in /  0.0 mm
20:55 60.1 °F /  15.6 °C 54.7 °F /  12.6 °C 30.1 in /  1018.8 hPa WSW 1.4 mph /  2.3 km/h 1.4 mph /  2.3 km/h 82 % 0 in /  0.0 mm
21:00 60.1 °F /  15.6 °C 54.7 °F /  12.6 °C 30.1 in /  1018.8 hPa WSW 1.2 mph /  1.9 km/h 1.4 mph /  2.3 km/h 82 % 0 in /  0.0 mm
21:05 59.9 °F /  15.5 °C 54.3 °F /  12.4 °C 30.1 in /  1018.8 hPa West 2.6 mph /  4.2 km/h 2.6 mph /  4.2 km/h 82 % 0 in /  0.0 mm
21:10 59.7 °F /  15.4 °C 54.1 °F /  12.3 °C 30.1 in /  1018.8 hPa SW 2.3 mph /  3.7 km/h 2.3 mph /  3.7 km/h 82 % 0 in /  0.0 mm
21:15 59.5 °F /  15.3 °C 54.3 °F /  12.4 °C 30.1 in /  1018.8 hPa WSW 2.3 mph /  3.7 km/h 2.3 mph /  3.7 km/h 83 % 0 in /  0.0 mm
21:20 59.5 °F /  15.3 °C 54.3 °F /  12.4 °C 30.1 in /  1018.8 hPa West 2.3 mph /  3.7 km/h 2.3 mph /  3.7 km/h 83 % 0 in /  0.0 mm
21:25 59.5 °F /  15.3 °C 54.3 °F /  12.4 °C 30.1 in /  1018.8 hPa West 1.2 mph /  1.9 km/h   83 % 0 in /  0.0 mm
21:30 59.5 °F /  15.3 °C 54.3 °F /  12.4 °C 30.1 in /  1018.8 hPa West 1.2 mph /  1.9 km/h 1.2 mph /  1.9 km/h 83 % 0 in /  0.0 mm
21:35 59.4 °F /  15.2 °C 54.1 °F /  12.3 °C 30.1 in /  1018.8 hPa SW 1.6 mph /  2.6 km/h 1.6 mph /  2.6 km/h 83 % 0 in /  0.0 mm
21:40 59.2 °F /  15.1 °C 54 °F /  12.2 °C 30.1 in /  1018.8 hPa Calm     83 % 0 in /  0.0 mm
21:45 59 °F /  15.0 °C 53.8 °F /  12.1 °C 30.1 in /  1018.8 hPa SW 1.2 mph /  1.9 km/h   83 % 0 in /  0.0 mm
21:50 58.8 °F /  14.9 °C 53.8 °F /  12.1 °C 30.1 in /  1018.8 hPa SW 2 mph /  3.2 km/h 2 mph /  3.2 km/h 83 % 0 in /  0.0 mm
21:55 58.6 °F /  14.8 °C 53.4 °F /  11.9 °C 30.1 in /  1017.8 hPa SW 2.3 mph /  3.7 km/h 2.3 mph /  3.7 km/h 83 % 0 in /  0.0 mm
22:00 58.5 °F /  14.7 °C 53.2 °F /  11.8 °C 30.1 in /  1017.8 hPa SW 2.2 mph /  3.5 km/h 2.2 mph /  3.5 km/h 83 % 0 in /  0.0 mm
22:05 58.3 °F /  14.6 °C 53.1 °F /  11.7 °C 30.1 in /  1017.8 hPa WSW 2.3 mph /  3.7 km/h 2.3 mph /  3.7 km/h 83 % 0 in /  0.0 mm
22:10 58.3 °F /  14.6 °C 53.1 °F /  11.7 °C 30.1 in /  1018.8 hPa SW 2.3 mph /  3.7 km/h 2.3 mph /  3.7 km/h 83 % 0 in /  0.0 mm
22:15 58.1 °F /  14.5 °C 53.1 °F /  11.7 °C 30.1 in /  1018.8 hPa SW 1.2 mph /  1.9 km/h 1.2 mph /  1.9 km/h 83 % 0 in /  0.0 mm
22:20 58.1 °F /  14.5 °C 53.1 °F /  11.7 °C 30.1 in /  1018.8 hPa SW 1.6 mph /  2.6 km/h 1.6 mph /  2.6 km/h 83 % 0 in /  0.0 mm
22:25 58.1 °F /  14.5 °C 53.1 °F /  11.7 °C 30.1 in /  1018.8 hPa SW 1.2 mph /  1.9 km/h 1.2 mph /  1.9 km/h 83 % 0 in /  0.0 mm
22:30 58.1 °F /  14.5 °C 53.1 °F /  11.7 °C 30.1 in /  1018.8 hPa SW 2.3 mph /  3.7 km/h   83 % 0 in /  0.0 mm
22:35 58.1 °F /  14.5 °C 53.1 °F /  11.7 °C 30.1 in /  1018.8 hPa SW 1.4 mph /  2.3 km/h   83 % 0 in /  0.0 mm
22:40 57.9 °F /  14.4 °C 52.5 °F /  11.4 °C 30.1 in /  1018.8 hPa West 2.3 mph /  3.7 km/h 2.3 mph /  3.7 km/h 82 % 0 in /  0.0 mm
22:45 57.9 °F /  14.4 °C 52.5 °F /  11.4 °C 30.1 in /  1018.8 hPa SW 1.2 mph /  1.9 km/h 1.2 mph /  1.9 km/h 82 % 0 in /  0.0 mm
22:50 57.9 °F /  14.4 °C 52.5 °F /  11.4 °C 30.1 in /  1018.8 hPa WSW 2.3 mph /  3.7 km/h 2.3 mph /  3.7 km/h 82 % 0 in /  0.0 mm
22:51 57.9 °F /  14.4 °C 52.5 °F /  11.4 °C 30.1 in /  1018.8 hPa WSW 2.3 mph /  3.7 km/h 2.3 mph /  3.7 km/h 82 % 0 in /  0.0 mm
22:56 58.3 °F /  14.6 °C 52.9 °F /  11.6 °C 30.1 in /  1017.8 hPa WSW 2.3 mph /  3.7 km/h 2.3 mph /  3.7 km/h 82 % 0 in /  0.0 mm
23:01 58.3 °F /  14.6 °C 52.9 °F /  11.6 °C 30.1 in /  1017.8 hPa WSW 2.3 mph /  3.7 km/h   82 % 0 in /  0.0 mm
23:06 58.3 °F /  14.6 °C 52.9 °F /  11.6 °C 30.1 in /  1017.8 hPa Calm     82 % 0 in /  0.0 mm
23:11 58.1 °F /  14.5 °C 52.5 °F /  11.4 °C 30.1 in /  1017.8 hPa Calm     82 % 0 in /  0.0 mm
23:16 57.9 °F /  14.4 °C 52.5 °F /  11.4 °C 30.1 in /  1017.8 hPa Calm     82 % 0 in /  0.0 mm
23:21 57.9 °F /  14.4 °C 52.5 °F /  11.4 °C 30.1 in /  1017.8 hPa Calm     82 % 0 in /  0.0 mm
23:26 57.7 °F /  14.3 °C 52.3 °F /  11.3 °C 30.1 in /  1017.8 hPa Calm     82 % 0 in /  0.0 mm
23:31 57.7 °F /  14.3 °C 52.3 °F /  11.3 °C 30.1 in /  1017.8 hPa Calm     82 % 0 in /  0.0 mm
23:36 57.6 °F /  14.2 °C 52.2 °F /  11.2 °C 30.1 in /  1017.8 hPa Calm     82 % 0 in /  0.0 mm
23:41 57.6 °F /  14.2 °C 52.3 °F /  11.3 °C 30.1 in /  1017.8 hPa Calm     83 % 0 in /  0.0 mm
23:46 57.4 °F /  14.1 °C 52.3 °F /  11.3 °C 30.1 in /  1017.8 hPa Calm     83 % 0 in /  0.0 mm
23:51 57.2 °F /  14.0 °C 52.2 °F /  11.2 °C 30.1 in /  1017.8 hPa North 1.4 mph /  2.3 km/h   83 % 0 in /  0.0 mm
23:56 57 °F /  13.9 °C 52 °F /  11.1 °C 30.1 in /  1017.8 hPa ENE 1.6 mph /  2.6 km/h   83 % 0 in /  0.0 mm
Meteo Sesrovires
Elogis d' Weather Underground - 3.5 mb

Guio original per  Jim McMurry - jmcmurry@mwt.net Adaptat per a la plantilla per  Wim van der Kuil - Leuven-Template.eu

Trobareu la nostra informacio del temps tambe a:

Weather Underground

AWEKAS